createdAt,value
2022-07-30T00:02:53.829Z,4.32
2022-07-30T00:06:37.869Z,4.72
2022-07-30T00:10:20.735Z,4.93
2022-07-30T00:14:02.592Z,5.93
2022-07-30T00:17:46.712Z,4.78
2022-07-30T00:21:38.789Z,5.50
2022-07-30T00:25:21.187Z,4.53
2022-07-30T00:29:03.440Z,5.38
2022-07-30T00:32:45.285Z,4.95
2022-07-30T00:36:27.418Z,5.95
2022-07-30T00:40:09.513Z,5.10
2022-07-30T00:43:51.454Z,5.65
2022-07-30T00:47:33.270Z,5.07
2022-07-30T00:51:15.129Z,5.50
2022-07-30T00:54:56.914Z,5.10
2022-07-30T00:58:38.775Z,5.43
2022-07-30T01:02:20.785Z,6.40
2022-07-30T01:06:02.707Z,5.43
2022-07-30T01:09:44.538Z,5.25
2022-07-30T01:13:30.299Z,6.18
2022-07-30T01:17:12.118Z,6.40
2022-07-30T01:21:09.318Z,5.05
2022-07-30T01:25:17.196Z,5.97
2022-07-30T01:28:58.986Z,7.28
2022-07-30T01:32:42.346Z,7.25
2022-07-30T01:36:24.209Z,5.32
2022-07-30T01:40:06.751Z,6.90
2022-07-30T01:43:48.575Z,6.30
2022-07-30T01:47:30.431Z,7.22
2022-07-30T01:51:12.934Z,7.53
2022-07-30T01:54:54.790Z,6.65
2022-07-30T01:58:37.756Z,7.55
2022-07-30T02:02:19.719Z,7.65
2022-07-30T02:06:12.067Z,7.18
2022-07-30T02:10:03.065Z,7.88
2022-07-30T02:13:47.562Z,7.47
2022-07-30T02:17:39.605Z,7.10
2022-07-30T02:21:25.137Z,7.75
2022-07-30T02:25:20.494Z,6.88
2022-07-30T02:29:02.289Z,7.80
2022-07-30T02:32:44.305Z,8.40
2022-07-30T02:36:26.734Z,8.13
2022-07-30T02:40:09.723Z,8.27
2022-07-30T02:43:51.744Z,9.27
2022-07-30T02:47:33.535Z,8.32
2022-07-30T02:51:18.550Z,8.40
2022-07-30T02:55:00.335Z,8.90
2022-07-30T02:58:43.515Z,8.55
2022-07-30T03:02:25.682Z,7.85
2022-07-30T03:06:13.766Z,9.40
2022-07-30T03:09:56.123Z,7.88
2022-07-30T03:13:38.441Z,7.60
2022-07-30T03:17:20.243Z,8.43
2022-07-30T03:21:02.051Z,8.10
2022-07-30T03:24:44.126Z,6.53
2022-07-30T03:28:25.934Z,8.23
2022-07-30T03:32:07.881Z,8.15
2022-07-30T03:35:50.090Z,7.70
2022-07-30T03:39:35.470Z,8.10
2022-07-30T03:43:18.569Z,8.52
2022-07-30T03:47:15.833Z,8.35
2022-07-30T03:50:57.639Z,9.30
2022-07-30T03:54:39.560Z,7.40
2022-07-30T03:58:21.353Z,7.63
2022-07-30T04:02:06.854Z,8.40
2022-07-30T04:05:49.393Z,7.35
2022-07-30T04:09:31.251Z,8.02
2022-07-30T04:13:13.050Z,7.57
2022-07-30T04:17:03.968Z,7.95
2022-07-30T04:20:46.629Z,8.98
2022-07-30T04:24:28.526Z,8.27
2022-07-30T04:28:11.026Z,10.13
2022-07-30T04:31:56.097Z,8.43
2022-07-30T04:35:50.629Z,7.70
2022-07-30T04:39:33.924Z,8.07
2022-07-30T04:43:15.998Z,9.13
2022-07-30T04:46:58.326Z,9.45
2022-07-30T04:50:42.017Z,8.93
2022-07-30T04:54:23.818Z,7.97
2022-07-30T04:58:05.687Z,7.13
2022-07-30T05:01:49.934Z,7.63
2022-07-30T05:05:32.987Z,7.45
2022-07-30T05:09:16.086Z,9.02
2022-07-30T05:12:58.202Z,9.48
2022-07-30T05:16:40.047Z,8.02
2022-07-30T05:20:21.845Z,7.15
2022-07-30T05:24:04.101Z,6.95
2022-07-30T05:27:45.881Z,8.18
2022-07-30T05:31:29.361Z,7.75
2022-07-30T05:35:13.067Z,7.65
2022-07-30T05:38:54.851Z,6.95
2022-07-30T05:42:36.654Z,8.73
2022-07-30T05:46:18.478Z,7.90
2022-07-30T05:50:04.532Z,8.00
2022-07-30T05:53:47.493Z,7.40
2022-07-30T05:57:29.337Z,7.25
2022-07-30T06:01:12.082Z,7.78
2022-07-30T06:04:54.262Z,8.07
2022-07-30T06:08:36.279Z,7.90
2022-07-30T06:12:18.814Z,8.40
2022-07-30T06:16:00.651Z,7.75
2022-07-30T06:19:42.473Z,6.82
2022-07-30T06:23:24.328Z,7.03
2022-07-30T06:27:06.199Z,7.63
2022-07-30T06:30:48.927Z,6.50
2022-07-30T06:34:30.758Z,7.47
2022-07-30T06:38:12.643Z,6.15
2022-07-30T06:41:54.429Z,6.95
2022-07-30T06:45:36.262Z,6.63
2022-07-30T06:49:18.124Z,7.25
2022-07-30T06:53:00.010Z,7.53
2022-07-30T06:56:41.782Z,6.30
2022-07-30T07:00:23.659Z,6.60
2022-07-30T07:04:05.521Z,6.60
2022-07-30T07:07:58.246Z,5.70
2022-07-30T07:11:40.809Z,6.45
2022-07-30T07:15:36.445Z,5.93
2022-07-30T07:20:00.460Z,6.45
2022-07-30T07:23:20.813Z,6.05
2022-07-30T07:27:02.984Z,5.18
2022-07-30T07:30:45.162Z,5.80
